Virtual Norwegian is not affiliated with Norwegian Air Shuttle in any way.
If you are looking for the real "Norwegian", or you wish to book Norwegian flights, please visit Norwegian.com


We use cookies to ensure you get the best experience on our website.   ACCEPT

EIDW - DUB - Dublin (Dublin)

General Info Alternate Airport
ICAO: EIDW Elevation: 242 ft ICAO: EGAA
IATA: DUB Country: Ireland IATA: BFS
City: Dublin Charts: Log in to view charts City: Belfast
Name: Dublin Hub: No Name Belfast Intl
General Info
ICAO: EIDW
IATA: DUB
City: Dublin
Name: Dublin
Elevation: 242 ft
Country: Ireland
Charts: Log in to view charts
Hub: No
 
Alternate Airport
ICAO: EGAA
IATA: BFS
City: Belfast
Name: Belfast Intl

Weather
211500Z 28022KT 9999 FEW020CB SCT040 13/07 Q1010 NOSIG
Weather
211500Z 28022KT 9999 FEW020CB SCT040 13/07 Q1010 NOSIG

Runway Info
10
Length ILS/LOC Course
2637 m 108.90 099
16
Length ILS/LOC Course
2072 m 111.50 161
28
Length ILS/LOC Course
2637 m 111.35 279
34
Length ILS/LOC Heading
2072 m N/A 337

NOTAMs
NOTAMs currently unavailable.
NOTAMs
NOTAMs currently unavailable

Route map
Airport
Airport (hub)